sensor_id;sensor_type;location;lat;lon;timestamp;temperature;humidity
23499;DHT22;11926;48.120;11.562;2023-04-09T00:01:39;5.80;97.30
23499;DHT22;11926;48.120;11.562;2023-04-09T00:04:26;5.80;97.30
23499;DHT22;11926;48.120;11.562;2023-04-09T00:07:14;5.80;97.20
23499;DHT22;11926;48.120;11.562;2023-04-09T00:10:02;5.90;97.40
23499;DHT22;11926;48.120;11.562;2023-04-09T00:12:51;5.80;97.20
23499;DHT22;11926;48.120;11.562;2023-04-09T00:15:39;5.90;97.20
23499;DHT22;11926;48.120;11.562;2023-04-09T00:18:29;5.90;97.40
23499;DHT22;11926;48.120;11.562;2023-04-09T00:21:17;5.90;97.30
23499;DHT22;11926;48.120;11.562;2023-04-09T00:24:05;5.90;97.30
23499;DHT22;11926;48.120;11.562;2023-04-09T00:26:53;5.90;97.30
23499;DHT22;11926;48.120;11.562;2023-04-09T00:29:42;5.90;97.30
23499;DHT22;11926;48.120;11.562;2023-04-09T00:32:29;6.00;97.40
23499;DHT22;11926;48.120;11.562;2023-04-09T00:35:17;6.00;97.20
23499;DHT22;11926;48.120;11.562;2023-04-09T00:38:05;6.00;97.30
23499;DHT22;11926;48.120;11.562;2023-04-09T00:40:52;6.00;97.40
23499;DHT22;11926;48.120;11.562;2023-04-09T00:43:40;6.00;97.50
23499;DHT22;11926;48.120;11.562;2023-04-09T00:46:30;6.10;97.50
23499;DHT22;11926;48.120;11.562;2023-04-09T00:49:18;6.10;97.80
23499;DHT22;11926;48.120;11.562;2023-04-09T00:52:06;6.10;98.00
23499;DHT22;11926;48.120;11.562;2023-04-09T00:54:55;6.10;98.10
23499;DHT22;11926;48.120;11.562;2023-04-09T00:57:45;6.10;98.20
23499;DHT22;11926;48.120;11.562;2023-04-09T01:00:33;6.10;98.40
23499;DHT22;11926;48.120;11.562;2023-04-09T01:03:21;6.10;98.40
23499;DHT22;11926;48.120;11.562;2023-04-09T01:06:17;6.10;98.40
23499;DHT22;11926;48.120;11.562;2023-04-09T01:09:14;6.10;98.60
23499;DHT22;11926;48.120;11.562;2023-04-09T01:12:11;6.10;98.70
23499;DHT22;11926;48.120;11.562;2023-04-09T01:15:04;6.10;99.00
23499;DHT22;11926;48.120;11.562;2023-04-09T01:17:58;6.10;99.20
23499;DHT22;11926;48.120;11.562;2023-04-09T01:20:52;6.10;99.50
23499;DHT22;11926;48.120;11.562;2023-04-09T01:23:46;6.10;99.50
23499;DHT22;11926;48.120;11.562;2023-04-09T01:26:48;6.10;99.80
23499;DHT22;11926;48.120;11.562;2023-04-09T01:29:47;6.10;99.80
23499;DHT22;11926;48.120;11.562;2023-04-09T01:32:38;6.10;99.80
23499;DHT22;11926;48.120;11.562;2023-04-09T01:35:28;6.10;99.50
23499;DHT22;11926;48.120;11.562;2023-04-09T01:38:18;6.10;99.50
23499;DHT22;11926;48.120;11.562;2023-04-09T01:41:09;6.10;99.80
23499;DHT22;11926;48.120;11.562;2023-04-09T01:43:59;6.10;99.70
23499;DHT22;11926;48.120;11.562;2023-04-09T01:46:50;6.10;99.70
23499;DHT22;11926;48.120;11.562;2023-04-09T01:49:40;6.10;99.40
23499;DHT22;11926;48.120;11.562;2023-04-09T01:52:29;6.10;99.30
23499;DHT22;11926;48.120;11.562;2023-04-09T01:55:16;6.10;99.60
23499;DHT22;11926;48.120;11.562;2023-04-09T01:58:03;6.10;99.60
23499;DHT22;11926;48.120;11.562;2023-04-09T02:00:58;6.10;99.70
23499;DHT22;11926;48.120;11.562;2023-04-09T02:03:51;6.10;99.60
23499;DHT22;11926;48.120;11.562;2023-04-09T02:06:47;6.10;99.70
23499;DHT22;11926;48.120;11.562;2023-04-09T02:09:40;6.00;99.60
23499;DHT22;11926;48.120;11.562;2023-04-09T02:12:30;6.10;99.80
23499;DHT22;11926;48.120;11.562;2023-04-09T02:15:21;6.10;99.80
23499;DHT22;11926;48.120;11.562;2023-04-09T02:18:21;6.00;99.90
23499;DHT22;11926;48.120;11.562;2023-04-09T02:21:11;6.00;99.90
23499;DHT22;11926;48.120;11.562;2023-04-09T02:24:00;6.10;99.90
23499;DHT22;11926;48.120;11.562;2023-04-09T02:26:47;6.10;99.90
23499;DHT22;11926;48.120;11.562;2023-04-09T02:29:35;6.00;99.90
23499;DHT22;11926;48.120;11.562;2023-04-09T02:32:23;6.00;99.90
23499;DHT22;11926;48.120;11.562;2023-04-09T02:35:11;6.00;99.90
23499;DHT22;11926;48.120;11.562;2023-04-09T02:38:01;6.10;99.90
23499;DHT22;11926;48.120;11.562;2023-04-09T02:40:50;6.00;99.90
23499;DHT22;11926;48.120;11.562;2023-04-09T02:43:38;6.00;99.80
23499;DHT22;11926;48.120;11.562;2023-04-09T02:46:25;6.00;99.90
23499;DHT22;11926;48.120;11.562;2023-04-09T02:49:13;6.00;99.90
23499;DHT22;11926;48.120;11.562;2023-04-09T02:52:04;6.00;99.90
23499;DHT22;11926;48.120;11.562;2023-04-09T02:54:53;6.00;99.90
23499;DHT22;11926;48.120;11.562;2023-04-09T02:57:41;6.00;99.70
23499;DHT22;11926;48.120;11.562;2023-04-09T03:00:29;6.00;99.70
23499;DHT22;11926;48.120;11.562;2023-04-09T03:03:16;6.00;99.90
23499;DHT22;11926;48.120;11.562;2023-04-09T03:06:04;6.00;99.90
23499;DHT22;11926;48.120;11.562;2023-04-09T03:08:52;5.90;99.90
23499;DHT22;11926;48.120;11.562;2023-04-09T03:11:42;5.90;99.90
23499;DHT22;11926;48.120;11.562;2023-04-09T03:14:29;6.00;99.90
23499;DHT22;11926;48.120;11.562;2023-04-09T03:17:19;6.00;99.90
23499;DHT22;11926;48.120;11.562;2023-04-09T03:20:07;5.80;99.90
23499;DHT22;11926;48.120;11.562;2023-04-09T03:22:56;5.80;99.90
23499;DHT22;11926;48.120;11.562;2023-04-09T03:26:00;5.80;99.90
23499;DHT22;11926;48.120;11.562;2023-04-09T03:28:53;5.80;99.90
23499;DHT22;11926;48.120;11.562;2023-04-09T03:31:41;5.90;99.90
23499;DHT22;11926;48.120;11.562;2023-04-09T03:34:30;5.80;99.90
23499;DHT22;11926;48.120;11.562;2023-04-09T03:37:20;5.90;99.90
23499;DHT22;11926;48.120;11.562;2023-04-09T03:40:10;5.90;99.90
23499;DHT22;11926;48.120;11.562;2023-04-09T03:42:58;5.80;99.90
23499;DHT22;11926;48.120;11.562;2023-04-09T03:45:48;5.80;99.90
23499;DHT22;11926;48.120;11.562;2023-04-09T03:48:41;5.80;99.90
23499;DHT22;11926;48.120;11.562;2023-04-09T03:51:30;5.80;99.90
23499;DHT22;11926;48.120;11.562;2023-04-09T03:54:18;5.60;99.90
23499;DHT22;11926;48.120;11.562;2023-04-09T03:57:06;5.60;99.90
23499;DHT22;11926;48.120;11.562;2023-04-09T03:59:57;5.50;99.90
23499;DHT22;11926;48.120;11.562;2023-04-09T04:02:47;5.40;99.90
23499;DHT22;11926;48.120;11.562;2023-04-09T04:05:41;5.30;99.90
23499;DHT22;11926;48.120;11.562;2023-04-09T04:08:32;5.30;99.90
23499;DHT22;11926;48.120;11.562;2023-04-09T04:11:20;5.10;99.90
23499;DHT22;11926;48.120;11.562;2023-04-09T04:14:11;4.90;99.90
23499;DHT22;11926;48.120;11.562;2023-04-09T04:17:01;4.90;99.90
23499;DHT22;11926;48.120;11.562;2023-04-09T04:19:50;4.80;99.90
23499;DHT22;11926;48.120;11.562;2023-04-09T04:22:40;4.70;99.90
23499;DHT22;11926;48.120;11.562;2023-04-09T04:25:28;4.70;99.90
23499;DHT22;11926;48.120;11.562;2023-04-09T04:28:16;4.60;99.90
23499;DHT22;11926;48.120;11.562;2023-04-09T04:31:06;4.60;99.90
23499;DHT22;11926;48.120;11.562;2023-04-09T04:33:54;4.60;99.90
23499;DHT22;11926;48.120;11.562;2023-04-09T04:36:44;4.50;99.90
23499;DHT22;11926;48.120;11.562;2023-04-09T04:39:31;4.50;99.90
23499;DHT22;11926;48.120;11.562;2023-04-09T04:42:24;4.60;99.90
23499;DHT22;11926;48.120;11.562;2023-04-09T04:45:12;4.60;99.90
23499;DHT22;11926;48.120;11.562;2023-04-09T04:48:05;4.70;99.90
23499;DHT22;11926;48.120;11.562;2023-04-09T04:50:54;4.60;99.90
23499;DHT22;11926;48.120;11.562;2023-04-09T04:53:47;4.70;99.90
23499;DHT22;11926;48.120;11.562;2023-04-09T04:56:36;4.70;99.90
23499;DHT22;11926;48.120;11.562;2023-04-09T04:59:36;4.70;99.90
23499;DHT22;11926;48.120;11.562;2023-04-09T05:02:25;4.70;99.90
23499;DHT22;11926;48.120;11.562;2023-04-09T05:05:32;4.80;99.90
23499;DHT22;11926;48.120;11.562;2023-04-09T05:08:20;4.90;99.90
23499;DHT22;11926;48.120;11.562;2023-04-09T05:11:12;4.90;99.90
23499;DHT22;11926;48.120;11.562;2023-04-09T05:14:05;5.00;99.90
23499;DHT22;11926;48.120;11.562;2023-04-09T05:16:52;5.00;99.90
23499;DHT22;11926;48.120;11.562;2023-04-09T05:19:50;4.90;99.90
23499;DHT22;11926;48.120;11.562;2023-04-09T05:22:47;4.90;99.90
23499;DHT22;11926;48.120;11.562;2023-04-09T05:25:36;4.90;99.90
23499;DHT22;11926;48.120;11.562;2023-04-09T05:28:29;4.90;99.90
23499;DHT22;11926;48.120;11.562;2023-04-09T05:31:36;4.90;99.90
23499;DHT22;11926;48.120;11.562;2023-04-09T05:34:45;4.90;99.90
23499;DHT22;11926;48.120;11.562;2023-04-09T05:37:36;4.80;99.90
23499;DHT22;11926;48.120;11.562;2023-04-09T05:40:24;4.90;99.90
23499;DHT22;11926;48.120;11.562;2023-04-09T05:43:12;4.90;99.90
23499;DHT22;11926;48.120;11.562;2023-04-09T05:46:03;4.80;99.90
23499;DHT22;11926;48.120;11.562;2023-04-09T05:48:50;4.90;99.90
23499;DHT22;11926;48.120;11.562;2023-04-09T05:51:40;5.00;99.90
23499;DHT22;11926;48.120;11.562;2023-04-09T05:54:29;5.00;99.90
23499;DHT22;11926;48.120;11.562;2023-04-09T05:57:17;5.10;99.90
23499;DHT22;11926;48.120;11.562;2023-04-09T06:00:13;5.20;99.90
23499;DHT22;11926;48.120;11.562;2023-04-09T06:03:03;5.30;99.90
23499;DHT22;11926;48.120;11.562;2023-04-09T06:05:51;5.40;99.90
23499;DHT22;11926;48.120;11.562;2023-04-09T06:08:38;5.40;99.90
23499;DHT22;11926;48.120;11.562;2023-04-09T06:11:26;5.60;99.90
23499;DHT22;11926;48.120;11.562;2023-04-09T06:14:14;5.60;99.90
23499;DHT22;11926;48.120;11.562;2023-04-09T06:17:02;5.70;99.90
23499;DHT22;11926;48.120;11.562;2023-04-09T06:19:51;5.80;99.90
23499;DHT22;11926;48.120;11.562;2023-04-09T06:22:39;5.90;99.90
23499;DHT22;11926;48.120;11.562;2023-04-09T06:25:26;6.00;99.90
23499;DHT22;11926;48.120;11.562;2023-04-09T06:28:14;6.10;99.90
23499;DHT22;11926;48.120;11.562;2023-04-09T06:31:02;6.20;99.90
23499;DHT22;11926;48.120;11.562;2023-04-09T06:33:49;6.30;99.90
23499;DHT22;11926;48.120;11.562;2023-04-09T06:36:39;6.40;99.90
23499;DHT22;11926;48.120;11.562;2023-04-09T06:39:29;6.50;99.90
23499;DHT22;11926;48.120;11.562;2023-04-09T06:42:16;6.70;99.90
23499;DHT22;11926;48.120;11.562;2023-04-09T06:45:15;6.80;99.90
23499;DHT22;11926;48.120;11.562;2023-04-09T06:48:03;6.90;99.90
23499;DHT22;11926;48.120;11.562;2023-04-09T06:50:51;7.10;99.90
23499;DHT22;11926;48.120;11.562;2023-04-09T06:53:41;7.20;99.90
23499;DHT22;11926;48.120;11.562;2023-04-09T06:56:29;7.40;99.80
23499;DHT22;11926;48.120;11.562;2023-04-09T06:59:17;7.50;99.60
23499;DHT22;11926;48.120;11.562;2023-04-09T07:02:04;7.60;99.60
23499;DHT22;11926;48.120;11.562;2023-04-09T07:04:52;7.70;99.20
23499;DHT22;11926;48.120;11.562;2023-04-09T07:07:40;7.80;98.80
23499;DHT22;11926;48.120;11.562;2023-04-09T07:10:30;7.90;98.50
23499;DHT22;11926;48.120;11.562;2023-04-09T07:13:18;8.10;98.50
23499;DHT22;11926;48.120;11.562;2023-04-09T07:16:05;8.20;98.40
23499;DHT22;11926;48.120;11.562;2023-04-09T07:18:53;8.30;98.10
23499;DHT22;11926;48.120;11.562;2023-04-09T07:21:40;8.50;97.80
23499;DHT22;11926;48.120;11.562;2023-04-09T07:24:28;8.60;97.10
23499;DHT22;11926;48.120;11.562;2023-04-09T07:27:17;8.70;97.00
23499;DHT22;11926;48.120;11.562;2023-04-09T07:30:06;8.80;96.70
23499;DHT22;11926;48.120;11.562;2023-04-09T07:32:56;8.90;96.60
23499;DHT22;11926;48.120;11.562;2023-04-09T07:35:43;9.00;96.30
23499;DHT22;11926;48.120;11.562;2023-04-09T07:38:32;9.10;95.90
23499;DHT22;11926;48.120;11.562;2023-04-09T07:41:19;9.30;95.50
23499;DHT22;11926;48.120;11.562;2023-04-09T07:44:09;9.30;95.00
23499;DHT22;11926;48.120;11.562;2023-04-09T07:46:56;9.40;94.20
23499;DHT22;11926;48.120;11.562;2023-04-09T07:49:44;9.50;92.80
23499;DHT22;11926;48.120;11.562;2023-04-09T07:52:32;9.60;93.10
23499;DHT22;11926;48.120;11.562;2023-04-09T07:55:19;9.70;93.30
23499;DHT22;11926;48.120;11.562;2023-04-09T07:58:07;9.80;93.30
23499;DHT22;11926;48.120;11.562;2023-04-09T08:00:56;9.90;83.40
23499;DHT22;11926;48.120;11.562;2023-04-09T08:03:44;10.00;82.70
23499;DHT22;11926;48.120;11.562;2023-04-09T08:06:32;10.20;82.00
23499;DHT22;11926;48.120;11.562;2023-04-09T08:09:20;10.40;81.20
23499;DHT22;11926;48.120;11.562;2023-04-09T08:12:07;10.50;80.10
23499;DHT22;11926;48.120;11.562;2023-04-09T08:14:56;10.60;79.60
23499;DHT22;11926;48.120;11.562;2023-04-09T08:17:44;10.70;79.40
23499;DHT22;11926;48.120;11.562;2023-04-09T08:20:32;10.80;78.80
23499;DHT22;11926;48.120;11.562;2023-04-09T08:23:20;11.00;77.30
23499;DHT22;11926;48.120;11.562;2023-04-09T08:26:08;11.20;77.20
23499;DHT22;11926;48.120;11.562;2023-04-09T08:28:55;11.50;76.30
23499;DHT22;11926;48.120;11.562;2023-04-09T08:31:42;11.90;75.70
23499;DHT22;11926;48.120;11.562;2023-04-09T08:34:31;12.30;75.50
23499;DHT22;11926;48.120;11.562;2023-04-09T08:37:18;12.80;73.10
23499;DHT22;11926;48.120;11.562;2023-04-09T08:40:06;13.50;71.10
23499;DHT22;11926;48.120;11.562;2023-04-09T08:42:55;14.30;68.90
23499;DHT22;11926;48.120;11.562;2023-04-09T08:45:44;14.30;65.80
23499;DHT22;11926;48.120;11.562;2023-04-09T08:48:32;13.80;66.60
23499;DHT22;11926;48.120;11.562;2023-04-09T08:51:23;13.70;67.50
23499;DHT22;11926;48.120;11.562;2023-04-09T08:54:14;15.40;68.30
23499;DHT22;11926;48.120;11.562;2023-04-09T08:57:04;17.90;63.90
23499;DHT22;11926;48.120;11.562;2023-04-09T08:59:52;20.30;64.40
23499;DHT22;11926;48.120;11.562;2023-04-09T09:03:00;22.20;55.10
23499;DHT22;11926;48.120;11.562;2023-04-09T09:05:48;21.60;50.70
23499;DHT22;11926;48.120;11.562;2023-04-09T09:08:38;19.90;50.90
23499;DHT22;11926;48.120;11.562;2023-04-09T09:11:26;18.30;51.90
23499;DHT22;11926;48.120;11.562;2023-04-09T09:14:15;16.70;53.10
23499;DHT22;11926;48.120;11.562;2023-04-09T09:17:05;15.60;54.80
23499;DHT22;11926;48.120;11.562;2023-04-09T09:19:54;15.20;56.70
23499;DHT22;11926;48.120;11.562;2023-04-09T09:22:50;14.80;55.80
23499;DHT22;11926;48.120;11.562;2023-04-09T09:25:42;14.80;56.50
23499;DHT22;11926;48.120;11.562;2023-04-09T09:28:34;14.70;57.00
23499;DHT22;11926;48.120;11.562;2023-04-09T09:31:23;15.10;57.70
23499;DHT22;11926;48.120;11.562;2023-04-09T09:34:11;15.50;56.00
23499;DHT22;11926;48.120;11.562;2023-04-09T09:36:59;15.10;55.00
23499;DHT22;11926;48.120;11.562;2023-04-09T09:39:46;14.60;55.70
23499;DHT22;11926;48.120;11.562;2023-04-09T09:42:34;14.40;56.80
23499;DHT22;11926;48.120;11.562;2023-04-09T09:45:21;14.70;57.30
23499;DHT22;11926;48.120;11.562;2023-04-09T09:48:10;15.10;56.70
23499;DHT22;11926;48.120;11.562;2023-04-09T09:50:58;15.20;55.90
23499;DHT22;11926;48.120;11.562;2023-04-09T09:53:46;15.00;55.80
23499;DHT22;11926;48.120;11.562;2023-04-09T09:56:38;14.70;56.10
23499;DHT22;11926;48.120;11.562;2023-04-09T09:59:36;14.40;56.30
23499;DHT22;11926;48.120;11.562;2023-04-09T10:02:26;14.40;56.90
23499;DHT22;11926;48.120;11.562;2023-04-09T10:05:16;14.70;56.90
23499;DHT22;11926;48.120;11.562;2023-04-09T10:08:04;14.70;56.30
23499;DHT22;11926;48.120;11.562;2023-04-09T10:10:52;14.60;55.80
23499;DHT22;11926;48.120;11.562;2023-04-09T10:13:45;14.50;56.00
23499;DHT22;11926;48.120;11.562;2023-04-09T10:16:36;14.30;57.50
23499;DHT22;11926;48.120;11.562;2023-04-09T10:19:24;14.40;57.70
23499;DHT22;11926;48.120;11.562;2023-04-09T10:22:16;14.50;57.30
23499;DHT22;11926;48.120;11.562;2023-04-09T10:25:06;14.40;57.10
23499;DHT22;11926;48.120;11.562;2023-04-09T10:27:59;14.40;57.10
23499;DHT22;11926;48.120;11.562;2023-04-09T10:30:46;14.40;57.10
23499;DHT22;11926;48.120;11.562;2023-04-09T10:33:36;14.50;56.90
23499;DHT22;11926;48.120;11.562;2023-04-09T10:36:23;14.50;56.30
23499;DHT22;11926;48.120;11.562;2023-04-09T10:39:12;14.40;56.20
23499;DHT22;11926;48.120;11.562;2023-04-09T10:42:00;14.30;56.70
23499;DHT22;11926;48.120;11.562;2023-04-09T10:45:04;14.10;56.50
23499;DHT22;11926;48.120;11.562;2023-04-09T10:47:52;13.90;57.30
23499;DHT22;11926;48.120;11.562;2023-04-09T10:50:45;13.80;57.70
23499;DHT22;11926;48.120;11.562;2023-04-09T10:53:32;13.90;58.10
23499;DHT22;11926;48.120;11.562;2023-04-09T10:56:19;14.20;57.70
23499;DHT22;11926;48.120;11.562;2023-04-09T10:59:08;14.10;56.80
23499;DHT22;11926;48.120;11.562;2023-04-09T11:01:56;13.90;56.50
23499;DHT22;11926;48.120;11.562;2023-04-09T11:04:55;13.80;57.20
23499;DHT22;11926;48.120;11.562;2023-04-09T11:07:52;13.90;57.60
23499;DHT22;11926;48.120;11.562;2023-04-09T11:10:42;14.10;57.80
23499;DHT22;11926;48.120;11.562;2023-04-09T11:13:32;14.00;57.50
23499;DHT22;11926;48.120;11.562;2023-04-09T11:16:22;13.90;58.10
23499;DHT22;11926;48.120;11.562;2023-04-09T11:19:13;13.80;57.30
23499;DHT22;11926;48.120;11.562;2023-04-09T11:22:03;13.70;57.50
23499;DHT22;11926;48.120;11.562;2023-04-09T11:24:53;13.60;58.40
23499;DHT22;11926;48.120;11.562;2023-04-09T11:27:44;13.80;58.60
23499;DHT22;11926;48.120;11.562;2023-04-09T11:30:33;13.80;57.40
23499;DHT22;11926;48.120;11.562;2023-04-09T11:33:22;13.80;56.90
23499;DHT22;11926;48.120;11.562;2023-04-09T11:36:17;13.70;57.30
23499;DHT22;11926;48.120;11.562;2023-04-09T11:39:04;13.70;57.20
23499;DHT22;11926;48.120;11.562;2023-04-09T11:41:53;13.60;57.20
23499;DHT22;11926;48.120;11.562;2023-04-09T11:44:40;13.60;56.70
23499;DHT22;11926;48.120;11.562;2023-04-09T11:47:27;13.60;55.80
23499;DHT22;11926;48.120;11.562;2023-04-09T11:50:15;13.40;55.90
23499;DHT22;11926;48.120;11.562;2023-04-09T11:53:15;13.30;56.80
23499;DHT22;11926;48.120;11.562;2023-04-09T11:56:02;13.40;57.50
23499;DHT22;11926;48.120;11.562;2023-04-09T11:58:50;13.40;57.80
23499;DHT22;11926;48.120;11.562;2023-04-09T12:01:40;13.70;57.70
23499;DHT22;11926;48.120;11.562;2023-04-09T12:04:29;13.70;57.30
23499;DHT22;11926;48.120;11.562;2023-04-09T12:07:17;13.70;57.10
23499;DHT22;11926;48.120;11.562;2023-04-09T12:10:05;13.50;57.00
23499;DHT22;11926;48.120;11.562;2023-04-09T12:13:00;13.10;57.40
23499;DHT22;11926;48.120;11.562;2023-04-09T12:15:49;12.80;57.90
23499;DHT22;11926;48.120;11.562;2023-04-09T12:18:38;12.70;58.50
23499;DHT22;11926;48.120;11.562;2023-04-09T12:21:44;12.70;58.50
23499;DHT22;11926;48.120;11.562;2023-04-09T12:24:33;12.70;58.60
23499;DHT22;11926;48.120;11.562;2023-04-09T12:27:21;12.60;58.80
23499;DHT22;11926;48.120;11.562;2023-04-09T12:30:08;12.60;59.60
23499;DHT22;11926;48.120;11.562;2023-04-09T12:32:58;12.80;59.50
23499;DHT22;11926;48.120;11.562;2023-04-09T12:35:46;12.90;59.60
23499;DHT22;11926;48.120;11.562;2023-04-09T12:38:33;13.10;60.30
23499;DHT22;11926;48.120;11.562;2023-04-09T12:41:20;13.30;58.80
23499;DHT22;11926;48.120;11.562;2023-04-09T12:44:08;13.10;58.60
23499;DHT22;11926;48.120;11.562;2023-04-09T12:46:55;13.10;58.50
23499;DHT22;11926;48.120;11.562;2023-04-09T12:49:44;13.10;58.70
23499;DHT22;11926;48.120;11.562;2023-04-09T12:52:31;13.20;58.70
23499;DHT22;11926;48.120;11.562;2023-04-09T12:55:20;13.40;58.40
23499;DHT22;11926;48.120;11.562;2023-04-09T12:58:08;13.70;58.70
23499;DHT22;11926;48.120;11.562;2023-04-09T13:00:56;13.90;58.30
23499;DHT22;11926;48.120;11.562;2023-04-09T13:03:44;14.20;57.80
23499;DHT22;11926;48.120;11.562;2023-04-09T13:06:34;14.40;57.00
23499;DHT22;11926;48.120;11.562;2023-04-09T13:09:21;14.40;57.00
23499;DHT22;11926;48.120;11.562;2023-04-09T13:12:09;14.50;56.80
23499;DHT22;11926;48.120;11.562;2023-04-09T13:15:00;14.40;56.70
23499;DHT22;11926;48.120;11.562;2023-04-09T13:17:48;14.50;57.00
23499;DHT22;11926;48.120;11.562;2023-04-09T13:20:39;14.40;56.20
23499;DHT22;11926;48.120;11.562;2023-04-09T13:23:28;14.20;56.30
23499;DHT22;11926;48.120;11.562;2023-04-09T13:26:16;13.90;56.60
23499;DHT22;11926;48.120;11.562;2023-04-09T13:29:04;13.60;57.30
23499;DHT22;11926;48.120;11.562;2023-04-09T13:31:53;13.40;58.60
23499;DHT22;11926;48.120;11.562;2023-04-09T13:34:41;13.50;59.40
23499;DHT22;11926;48.120;11.562;2023-04-09T13:37:28;13.50;58.90
23499;DHT22;11926;48.120;11.562;2023-04-09T13:40:17;13.50;59.30
23499;DHT22;11926;48.120;11.562;2023-04-09T13:43:04;13.70;60.20
23499;DHT22;11926;48.120;11.562;2023-04-09T13:45:51;13.80;59.80
23499;DHT22;11926;48.120;11.562;2023-04-09T13:48:38;13.60;59.50
23499;DHT22;11926;48.120;11.562;2023-04-09T13:51:27;13.60;59.30
23499;DHT22;11926;48.120;11.562;2023-04-09T13:54:14;13.40;59.60
23499;DHT22;11926;48.120;11.562;2023-04-09T13:57:03;13.30;60.30
23499;DHT22;11926;48.120;11.562;2023-04-09T13:59:50;13.30;60.20
23499;DHT22;11926;48.120;11.562;2023-04-09T14:02:37;13.30;60.70
23499;DHT22;11926;48.120;11.562;2023-04-09T14:05:25;13.40;61.10
23499;DHT22;11926;48.120;11.562;2023-04-09T14:08:14;13.50;60.90
23499;DHT22;11926;48.120;11.562;2023-04-09T14:11:02;13.60;60.80
23499;DHT22;11926;48.120;11.562;2023-04-09T14:13:51;13.70;60.40
23499;DHT22;11926;48.120;11.562;2023-04-09T14:16:39;13.90;60.20
23499;DHT22;11926;48.120;11.562;2023-04-09T14:19:27;14.00;60.50
23499;DHT22;11926;48.120;11.562;2023-04-09T14:22:14;14.10;60.10
23499;DHT22;11926;48.120;11.562;2023-04-09T14:25:02;14.20;59.50
23499;DHT22;11926;48.120;11.562;2023-04-09T14:27:51;14.20;58.90
23499;DHT22;11926;48.120;11.562;2023-04-09T14:30:39;14.10;58.60
23499;DHT22;11926;48.120;11.562;2023-04-09T14:33:26;14.00;58.90
23499;DHT22;11926;48.120;11.562;2023-04-09T14:36:13;13.80;58.30
23499;DHT22;11926;48.120;11.562;2023-04-09T14:39:01;13.60;59.20
23499;DHT22;11926;48.120;11.562;2023-04-09T14:41:48;13.80;59.40
23499;DHT22;11926;48.120;11.562;2023-04-09T14:44:36;14.10;58.80
23499;DHT22;11926;48.120;11.562;2023-04-09T14:47:24;14.30;58.20
23499;DHT22;11926;48.120;11.562;2023-04-09T14:50:12;14.60;58.00
23499;DHT22;11926;48.120;11.562;2023-04-09T14:52:59;14.50;57.10
23499;DHT22;11926;48.120;11.562;2023-04-09T14:55:46;14.20;57.00
23499;DHT22;11926;48.120;11.562;2023-04-09T14:58:34;13.80;57.20
23499;DHT22;11926;48.120;11.562;2023-04-09T15:01:21;13.40;58.30
23499;DHT22;11926;48.120;11.562;2023-04-09T15:04:10;13.10;59.10
23499;DHT22;11926;48.120;11.562;2023-04-09T15:07:00;13.00;59.40
23499;DHT22;11926;48.120;11.562;2023-04-09T15:09:48;12.80;59.50
23499;DHT22;11926;48.120;11.562;2023-04-09T15:12:36;12.80;59.70
23499;DHT22;11926;48.120;11.562;2023-04-09T15:15:23;12.80;60.20
23499;DHT22;11926;48.120;11.562;2023-04-09T15:18:11;12.70;60.10
23499;DHT22;11926;48.120;11.562;2023-04-09T15:21:00;12.70;60.60
23499;DHT22;11926;48.120;11.562;2023-04-09T15:23:49;12.60;61.40
23499;DHT22;11926;48.120;11.562;2023-04-09T15:26:37;12.50;61.50
23499;DHT22;11926;48.120;11.562;2023-04-09T15:29:28;12.50;61.30
23499;DHT22;11926;48.120;11.562;2023-04-09T15:32:16;12.50;60.50
23499;DHT22;11926;48.120;11.562;2023-04-09T15:35:04;12.50;60.10
23499;DHT22;11926;48.120;11.562;2023-04-09T15:37:57;12.50;60.50
23499;DHT22;11926;48.120;11.562;2023-04-09T15:40:45;12.60;61.30
23499;DHT22;11926;48.120;11.562;2023-04-09T15:43:32;12.70;61.30
23499;DHT22;11926;48.120;11.562;2023-04-09T15:46:20;12.70;60.90
23499;DHT22;11926;48.120;11.562;2023-04-09T15:49:08;12.70;60.50
23499;DHT22;11926;48.120;11.562;2023-04-09T15:51:56;12.80;60.50
23499;DHT22;11926;48.120;11.562;2023-04-09T15:54:59;12.80;61.40
23499;DHT22;11926;48.120;11.562;2023-04-09T15:57:51;12.70;60.30
23499;DHT22;11926;48.120;11.562;2023-04-09T16:00:40;12.60;59.60
23499;DHT22;11926;48.120;11.562;2023-04-09T16:03:28;12.50;59.50
23499;DHT22;11926;48.120;11.562;2023-04-09T16:06:24;12.40;59.40
23499;DHT22;11926;48.120;11.562;2023-04-09T16:09:12;12.20;59.70
23499;DHT22;11926;48.120;11.562;2023-04-09T16:12:03;12.10;59.90
23499;DHT22;11926;48.120;11.562;2023-04-09T16:14:52;12.00;60.40
23499;DHT22;11926;48.120;11.562;2023-04-09T16:17:40;12.00;60.90
23499;DHT22;11926;48.120;11.562;2023-04-09T16:20:30;11.90;61.00
23499;DHT22;11926;48.120;11.562;2023-04-09T16:23:19;11.90;61.60
23499;DHT22;11926;48.120;11.562;2023-04-09T16:26:06;11.90;61.70
23499;DHT22;11926;48.120;11.562;2023-04-09T16:28:57;11.90;61.80
23499;DHT22;11926;48.120;11.562;2023-04-09T16:31:47;12.00;61.30
23499;DHT22;11926;48.120;11.562;2023-04-09T16:34:34;11.90;61.00
23499;DHT22;11926;48.120;11.562;2023-04-09T16:37:22;11.90;61.10
23499;DHT22;11926;48.120;11.562;2023-04-09T16:40:09;11.90;61.00
23499;DHT22;11926;48.120;11.562;2023-04-09T16:42:56;11.80;60.60
23499;DHT22;11926;48.120;11.562;2023-04-09T16:45:45;11.70;60.60
23499;DHT22;11926;48.120;11.562;2023-04-09T16:48:32;11.70;60.60
23499;DHT22;11926;48.120;11.562;2023-04-09T16:51:22;11.60;60.30
23499;DHT22;11926;48.120;11.562;2023-04-09T16:54:09;11.60;60.20
23499;DHT22;11926;48.120;11.562;2023-04-09T16:56:57;11.50;60.40
23499;DHT22;11926;48.120;11.562;2023-04-09T16:59:44;11.50;60.60
23499;DHT22;11926;48.120;11.562;2023-04-09T17:02:34;11.40;60.50
23499;DHT22;11926;48.120;11.562;2023-04-09T17:05:22;11.40;61.00
23499;DHT22;11926;48.120;11.562;2023-04-09T17:08:09;11.40;61.20
23499;DHT22;11926;48.120;11.562;2023-04-09T17:10:59;11.30;61.30
23499;DHT22;11926;48.120;11.562;2023-04-09T17:13:50;11.20;61.40
23499;DHT22;11926;48.120;11.562;2023-04-09T17:16:38;11.20;61.80
23499;DHT22;11926;48.120;11.562;2023-04-09T17:19:28;11.20;61.80
23499;DHT22;11926;48.120;11.562;2023-04-09T17:22:19;11.10;61.20
23499;DHT22;11926;48.120;11.562;2023-04-09T17:25:07;11.10;62.40
23499;DHT22;11926;48.120;11.562;2023-04-09T17:27:55;11.10;62.40
23499;DHT22;11926;48.120;11.562;2023-04-09T17:30:42;11.10;62.50
23499;DHT22;11926;48.120;11.562;2023-04-09T17:33:30;11.00;62.70
23499;DHT22;11926;48.120;11.562;2023-04-09T17:36:21;11.00;62.90
23499;DHT22;11926;48.120;11.562;2023-04-09T17:39:12;11.00;63.40
23499;DHT22;11926;48.120;11.562;2023-04-09T17:42:00;10.80;63.60